Ghotki Weather



Ghotki's Current Weather

Temprature 39.92o overcast clouds

overcast clouds

Rain: 0 %

Min Temprature39.92o
Max Temprature39.92o
Humidity29
Wind Speed2.08 m/h
Sun Rise05:40:41
Sun Set19:17:28
Current Time: 24-Jul-2021 15:41:08
Lat/Lon: 28.006, 69.3161




Ghotki's Geo Location



Ghotki's Weather Forecast

Time Overall Temp Min Temp Max Temp Humidity Wind Speed Rain
24-Jul-2021 (Sat)
17:00:00 broken clouds 39.920 39.920 41.000 27 2.13 m/h 0 %
20:00:00 broken clouds 39.320 38.130 39.320 30 4.14 m/h 0 %
23:00:00 broken clouds 37.290 35.970 37.290 36 5.18 m/h 0 %
25-Jul-2021 (Sun)
02:00:00 clear sky 34.090 34.090 34.090 46 3.59 m/h 0 %
05:00:00 clear sky 32.650 32.650 32.650 53 3.26 m/h 0 %
08:00:00 few clouds 35.120 35.120 35.120 45 3.13 m/h 0 %
11:00:00 clear sky 41.020 41.020 41.020 28 3.81 m/h 0 %
14:00:00 clear sky 44.320 44.320 44.320 22 3.88 m/h 0 %
17:00:00 scattered clouds 44.440 44.440 44.440 22 6.07 m/h 0 %
20:00:00 broken clouds 40.310 40.310 40.310 31 7.3 m/h 0 %
23:00:00 broken clouds 36.430 36.430 36.430 44 8.37 m/h 0 %
26-Jul-2021 (Mon)
02:00:00 scattered clouds 33.080 33.080 33.080 55 7.37 m/h 0 %
05:00:00 broken clouds 31.380 31.380 31.380 61 6.85 m/h 0 %
08:00:00 overcast clouds 32.930 32.930 32.930 55 5.66 m/h 0 %
11:00:00 overcast clouds 38.570 38.570 38.570 38 4.88 m/h 0 %
14:00:00 broken clouds 42.630 42.630 42.630 29 5.36 m/h 0 %
17:00:00 scattered clouds 42.550 42.550 42.550 28 6.07 m/h 0 %
20:00:00 broken clouds 38.910 38.910 38.910 36 7.38 m/h 0 %
23:00:00 broken clouds 33.920 33.920 33.920 52 9.5 m/h 0 %
27-Jul-2021 (Tue)
02:00:00 overcast clouds 30.920 30.920 30.920 67 7.27 m/h 0 %
05:00:00 broken clouds 29.980 29.980 29.980 70 6.81 m/h 0 %
08:00:00 overcast clouds 31.710 31.710 31.710 62 6.05 m/h 0 %
11:00:00 broken clouds 37.020 37.020 37.020 45 6.35 m/h 0 %
14:00:00 overcast clouds 39.830 39.830 39.830 36 6.14 m/h 0 %
17:00:00 overcast clouds 39.010 39.010 39.010 37 7.6 m/h 0 %
20:00:00 overcast clouds 33.890 33.890 33.890 53 8.72 m/h 0 %
23:00:00 overcast clouds 31.730 31.730 31.730 62 7.64 m/h 0 %
28-Jul-2021 (Wed)
02:00:00 overcast clouds 30.260 30.260 30.260 67 5.8 m/h 0 %
05:00:00 overcast clouds 29.450 29.450 29.450 70 5.56 m/h 0 %
08:00:00 overcast clouds 31.330 31.330 31.330 62 5.66 m/h 0 %
11:00:00 scattered clouds 36.970 36.970 36.970 44 4.8 m/h 0 %
14:00:00 overcast clouds 40.880 40.880 40.880 33 4.86 m/h 0 %
17:00:00 overcast clouds 41.210 41.210 41.210 32 6.24 m/h 0 %
20:00:00 overcast clouds 37.060 37.060 37.060 43 7.4 m/h 0 %
23:00:00 overcast clouds 33.560 33.560 33.560 54 6.58 m/h 0 %
29-Jul-2021 (Thu)
02:00:00 overcast clouds 31.300 31.300 31.300 63 5.8 m/h 0 %
05:00:00 overcast clouds 30.070 30.070 30.070 68 4.19 m/h 0 %
08:00:00 scattered clouds 31.610 31.610 31.610 62 4.25 m/h 0 %
11:00:00 broken clouds 36.550 36.550 36.550 45 3.65 m/h 0 %
14:00:00 overcast clouds 40.660 40.660 40.660 34 4.81 m/h 0 %

Famous Cities (60)